Portada
METAR-TAF:

METAR-TAF

Aeropuertos :

Base Naval de Rota

Rota, España

latitud: 36-39N, longitud: 006-21W, altitud: 26 m

Observación

El informe se hizo hace 24 minutos, a las 14:00 UTC
Viento 9 kt del suroeste, variando entre sur y oeste
Temperatura 25°C
Humedad 57%
Presión 1015 hPa
Visibilidad 10 km o más
sin nubes por debajo de 1500 m y sin presencia de cumulonimbus.

METAR: LERT 141400Z 23009KT 180V270 CAVOK 25/16 Q1015 NOSIG

Hora: 16:24 (14:24 UTC)

Pronóstico

El informe se hizo hace 6 horas y 24 minutos, a las 08:00 UTC
Pronóstico válido del 14 a las 09 UTC al 15 a las 09 UTC
Viento 8 kt del oeste-suroeste
Visibilidad 10 km o más
sin nubes por debajo de 1500 m y sin presencia de cumulonimbus.

TAF: LERT 140800Z 1409/1509 25008KT CAVOK TX27/1415Z TN19/1505Z

Observaciones y pronósticos meteorológicos de más de 4000 aeropuertos (mensajes METAR y TAF).

Los puntos amarillos y rojos representan las estaciones disponibles.

Ponga el ratón en el punto deseado para ver el nombre de la estación.

Haga clic para ver las observaciones y los pronósticos meteorológicos.

Para cambiar el mapa : haga clic en los botones verdes con una cruz de color negro para hacer un zoom, en el botón verde con un guión para alejar o en las flechas verdes para mapas adyacentes.


METAR-TAF: